Time;durP1;ratioP1;P1;durP2;ratioP2;P2;SDS_P1;SDS_P2;PMS_P1;PMS_P2;Temp;Humidity;BMP_temperature;BMP_pressure;BME280_temperature;BME280_humidity;BME280_pressure;Samples;Min_cycle;Max_cycle;Signal;HPM_P1;HPM_P2
2022/03/17 00:00:55;;;;;;;33.88;20.33;;;;;;;;;;5072276;28;20034;-60
2022/03/17 00:03:21;;;;;;;31.10;19.35;;;;;;;;;;5072208;28;20041;-61
2022/03/17 00:05:47;;;;;;;36.05;19.92;;;;;;;;;;5078210;28;20047;-60
2022/03/17 00:08:13;;;;;;;35.83;20.48;;;;;;;;;;5092679;28;20401;-61
2022/03/17 00:10:39;;;;;;;32.22;19.55;;;;;;;;;;5075268;28;20405;-60
2022/03/17 00:13:05;;;;;;;35.72;22.02;;;;;;;;;;5072909;28;20159;-61
2022/03/17 00:15:31;;;;;;;35.63;20.27;;;;;;;;;;5072255;28;20071;-61
2022/03/17 00:17:58;;;;;;;36.13;21.30;;;;;;;;;;5068060;28;20064;-60
2022/03/17 00:20:24;;;;;;;34.97;20.65;;;;;;;;;;5072152;28;20462;-61
2022/03/17 00:22:50;;;;;;;37.80;20.98;;;;;;;;;;5071621;28;20120;-61
2022/03/17 00:25:20;;;;;;;40.40;21.65;;;;;;;;;;5075393;28;20048;-61
2022/03/17 00:27:46;;;;;;;35.53;20.80;;;;;;;;;;5071484;28;20105;-61
2022/03/17 00:30:12;;;;;;;35.55;21.05;;;;;;;;;;5071861;28;20040;-60
2022/03/17 00:32:38;;;;;;;33.80;19.77;;;;;;;;;;5052980;28;20041;-60
2022/03/17 00:37:50;;;;;;;34.60;20.50;;;;;;;;;;5071607;28;20040;-61
2022/03/17 00:40:17;;;;;;;35.70;22.10;;;;;;;;;;5069373;28;20111;-61
2022/03/17 00:42:44;;;;;;;33.97;20.75;;;;;;;;;;5078467;28;20056;-61
2022/03/17 00:45:11;;;;;;;35.50;20.67;;;;;;;;;;5074395;28;20791;-60
2022/03/17 00:47:37;;;;;;;35.65;21.00;;;;;;;;;;5053553;28;20098;-61
2022/03/17 00:50:04;;;;;;;36.88;21.33;;;;;;;;;;5072523;28;20041;-61
2022/03/17 00:52:30;;;;;;;38.78;22.08;;;;;;;;;;5071667;28;20036;-61
2022/03/17 00:54:57;;;;;;;36.00;21.10;;;;;;;;;;5053804;28;20101;-61
2022/03/17 00:57:23;;;;;;;38.22;21.30;;;;;;;;;;5071106;28;20884;-60
2022/03/17 00:59:49;;;;;;;35.00;20.80;;;;;;;;;;5072121;28;20032;-61
2022/03/17 01:02:16;;;;;;;35.40;20.45;;;;;;;;;;5053794;28;20040;-61
2022/03/17 01:04:42;;;;;;;37.95;21.42;;;;;;;;;;5071970;28;20052;-60
2022/03/17 01:07:08;;;;;;;36.20;20.88;;;;;;;;;;5071085;28;20049;-61
2022/03/17 01:09:34;;;;;;;36.05;21.55;;;;;;;;;;5073692;28;20044;-61
2022/03/17 01:12:01;;;;;;;31.75;20.73;;;;;;;;;;5086849;28;20078;-61
2022/03/17 01:14:27;;;;;;;36.25;22.05;;;;;;;;;;5072110;28;20045;-61
2022/03/17 01:16:53;;;;;;;38.10;22.27;;;;;;;;;;5071058;28;20048;-61
2022/03/17 01:19:19;;;;;;;35.53;20.80;;;;;;;;;;5070964;28;20033;-61
2022/03/17 01:21:49;;;;;;;35.08;21.23;;;;;;;;;;5071743;28;20040;-61
2022/03/17 01:24:16;;;;;;;36.13;20.00;;;;;;;;;;5071721;28;20513;-61
2022/03/17 01:26:42;;;;;;;35.67;20.95;;;;;;;;;;5091500;28;20043;-61
2022/03/17 01:29:08;;;;;;;35.83;21.10;;;;;;;;;;5087389;28;20422;-61
2022/03/17 01:31:34;;;;;;;37.03;20.52;;;;;;;;;;5071563;28;20074;-61
2022/03/17 01:34:00;;;;;;;34.50;20.17;;;;;;;;;;5071578;28;20044;-61
2022/03/17 01:36:26;;;;;;;34.95;21.33;;;;;;;;;;5070244;28;20041;-61
2022/03/17 01:38:53;;;;;;;36.38;21.50;;;;;;;;;;5071366;28;20486;-61
2022/03/17 01:41:19;;;;;;;40.35;21.92;;;;;;;;;;5070349;28;20074;-61
2022/03/17 01:43:45;;;;;;;35.08;21.55;;;;;;;;;;5072125;28;20123;-61
2022/03/17 01:46:14;;;;;;;34.85;21.10;;;;;;;;;;5053165;28;20486;-61
2022/03/17 01:48:40;;;;;;;37.58;21.30;;;;;;;;;;5071349;28;20067;-61
2022/03/17 01:51:06;;;;;;;34.47;21.23;;;;;;;;;;5070534;28;20097;-61
2022/03/17 01:53:32;;;;;;;33.28;20.55;;;;;;;;;;5071579;28;20037;-61
2022/03/17 01:55:58;;;;;;;38.15;21.05;;;;;;;;;;5071316;28;20044;-61
2022/03/17 01:58:25;;;;;;;37.25;22.33;;;;;;;;;;5070496;28;20044;-61
2022/03/17 02:00:51;;;;;;;37.55;20.98;;;;;;;;;;5070928;28;20033;-61
2022/03/17 02:03:17;;;;;;;36.75;20.48;;;;;;;;;;5053359;28;20120;-61
2022/03/17 02:05:43;;;;;;;34.65;20.02;;;;;;;;;;5070889;28;20041;-61
2022/03/17 02:08:10;;;;;;;37.15;21.60;;;;;;;;;;5069450;28;20040;-61
2022/03/17 02:13:21;;;;;;;35.78;21.58;;;;;;;;;;5071650;28;20045;-61
2022/03/17 02:15:51;;;;;;;42.63;22.90;;;;;;;;;;5071165;28;20513;-61
2022/03/17 02:18:18;;;;;;;38.75;23.02;;;;;;;;;;5070453;28;20036;-61
2022/03/17 02:20:44;;;;;;;32.75;20.15;;;;;;;;;;5071135;28;20047;-61
2022/03/17 02:25:59;;;;;;;35.53;21.48;;;;;;;;;;5076438;28;20041;-62
2022/03/17 02:28:25;;;;;;;39.90;22.27;;;;;;;;;;5070550;28;20071;-61
2022/03/17 02:30:52;;;;;;;35.20;20.02;;;;;;;;;;5074329;28;20040;-61
2022/03/17 02:33:18;;;;;;;39.80;21.88;;;;;;;;;;5057363;28;20040;-61
2022/03/17 02:35:48;;;;;;;38.67;22.13;;;;;;;;;;5074256;28;20047;-60
2022/03/17 02:38:15;;;;;;;36.30;21.50;;;;;;;;;;5073868;28;20048;-61
2022/03/17 02:40:43;;;;;;;38.08;20.75;;;;;;;;;;5074286;28;20119;-61
2022/03/17 02:43:09;;;;;;;40.30;21.92;;;;;;;;;;5074573;28;20032;-61
2022/03/17 02:45:36;;;;;;;36.22;21.90;;;;;;;;;;5075015;28;20040;-61
2022/03/17 02:48:03;;;;;;;36.63;21.15;;;;;;;;;;5074151;28;20383;-61
2022/03/17 02:50:29;;;;;;;39.08;21.92;;;;;;;;;;5074595;28;20077;-61
2022/03/17 02:52:55;;;;;;;35.70;21.25;;;;;;;;;;5074882;28;20056;-61
2022/03/17 02:55:21;;;;;;;38.17;22.17;;;;;;;;;;5074463;28;20048;-61
2022/03/17 02:57:47;;;;;;;39.42;21.58;;;;;;;;;;5073547;28;20044;-61
2022/03/17 03:00:14;;;;;;;38.95;23.05;;;;;;;;;;5072452;28;20120;-61
2022/03/17 03:02:40;;;;;;;38.50;22.35;;;;;;;;;;5073905;28;20490;-61
2022/03/17 03:05:07;;;;;;;37.38;21.77;;;;;;;;;;5074449;28;20032;-61
2022/03/17 03:07:34;;;;;;;36.97;21.90;;;;;;;;;;5072738;28;20460;-61
2022/03/17 03:10:00;;;;;;;38.42;22.15;;;;;;;;;;5074297;28;20036;-61
2022/03/17 03:12:26;;;;;;;41.35;23.55;;;;;;;;;;5056320;28;20398;-61
2022/03/17 03:14:52;;;;;;;39.22;22.23;;;;;;;;;;5073762;28;20048;-61
2022/03/17 03:17:21;;;;;;;42.78;23.77;;;;;;;;;;5055635;28;20029;-61
2022/03/17 03:19:47;;;;;;;39.35;22.73;;;;;;;;;;5074473;28;20108;-60
2022/03/17 03:22:13;;;;;;;36.28;22.17;;;;;;;;;;5073783;28;20051;-61
2022/03/17 03:24:39;;;;;;;36.47;21.42;;;;;;;;;;5074514;28;20119;-61
2022/03/17 03:27:05;;;;;;;41.13;23.52;;;;;;;;;;5072783;28;20099;-61
2022/03/17 03:29:31;;;;;;;39.58;23.45;;;;;;;;;;5077347;28;20097;-61
2022/03/17 03:31:58;;;;;;;40.10;23.48;;;;;;;;;;5077047;28;20054;-61
2022/03/17 03:34:25;;;;;;;37.08;22.33;;;;;;;;;;5074309;28;20048;-61
2022/03/17 03:39:36;;;;;;;37.78;23.00;;;;;;;;;;5073545;28;20056;-61
2022/03/17 03:42:03;;;;;;;41.38;23.40;;;;;;;;;;5072727;28;20120;-60
2022/03/17 03:44:29;;;;;;;35.72;22.40;;;;;;;;;;5074058;28;20037;-61
2022/03/17 03:46:56;;;;;;;37.35;22.88;;;;;;;;;;5072330;28;20516;-61
2022/03/17 03:49:22;;;;;;;38.67;22.30;;;;;;;;;;5073232;28;20043;-61
2022/03/17 03:51:48;;;;;;;40.40;24.10;;;;;;;;;;5055785;28;20044;-61
2022/03/17 03:54:15;;;;;;;39.45;23.83;;;;;;;;;;5072719;28;20043;-60
2022/03/17 03:56:43;;;;;;;40.35;23.00;;;;;;;;;;5073421;28;20044;-61
2022/03/17 03:59:11;;;;;;;38.10;24.05;;;;;;;;;;5073049;28;20040;-61
2022/03/17 04:01:37;;;;;;;38.35;24.80;;;;;;;;;;5073011;28;20117;-61
2022/03/17 04:04:03;;;;;;;39.60;23.15;;;;;;;;;;5073738;28;20071;-61
2022/03/17 04:06:31;;;;;;;39.08;23.65;;;;;;;;;;5072221;28;20040;-61
2022/03/17 04:08:57;;;;;;;37.58;22.48;;;;;;;;;;5072557;28;20041;-61
2022/03/17 04:11:23;;;;;;;39.40;24.75;;;;;;;;;;5073236;28;20517;-61
2022/03/17 04:13:49;;;;;;;36.92;23.35;;;;;;;;;;5054849;28;20545;-61
2022/03/17 04:16:15;;;;;;;40.38;23.83;;;;;;;;;;5073031;28;20162;-61
2022/03/17 04:18:41;;;;;;;39.00;24.60;;;;;;;;;;5072848;28;20517;-61
2022/03/17 04:21:07;;;;;;;40.97;24.63;;;;;;;;;;5072523;28;20059;-60
2022/03/17 04:23:33;;;;;;;40.25;25.00;;;;;;;;;;5072284;28;20043;-61
2022/03/17 04:25:59;;;;;;;37.35;24.27;;;;;;;;;;5054725;28;20060;-61
2022/03/17 04:28:25;;;;;;;43.15;25.15;;;;;;;;;;5072346;28;20055;-61
2022/03/17 04:30:51;;;;;;;38.67;24.83;;;;;;;;;;5073258;28;20502;-61
2022/03/17 04:33:17;;;;;;;37.42;24.55;;;;;;;;;;5072411;28;20094;-61
2022/03/17 04:35:43;;;;;;;43.13;24.73;;;;;;;;;;5072571;28;20079;-61
2022/03/17 04:38:09;;;;;;;43.88;26.33;;;;;;;;;;5071624;28;20064;-60
2022/03/17 04:40:35;;;;;;;44.90;27.42;;;;;;;;;;5072681;28;20045;-61
2022/03/17 04:43:01;;;;;;;46.17;25.40;;;;;;;;;;5072335;28;20043;-61
2022/03/17 04:45:27;;;;;;;47.30;27.15;;;;;;;;;;5072858;28;20402;-61
2022/03/17 04:47:53;;;;;;;43.42;26.10;;;;;;;;;;5071937;28;20040;-61
2022/03/17 04:50:19;;;;;;;54.70;28.92;;;;;;;;;;5054722;28;20044;-61
2022/03/17 04:55:30;;;;;;;56.08;31.02;;;;;;;;;;5072029;28;20044;-60
2022/03/17 04:57:56;;;;;;;56.58;31.60;;;;;;;;;;5071737;28;20065;-61
2022/03/17 05:00:22;;;;;;;55.65;33.15;;;;;;;;;;5069941;28;20509;-61
2022/03/17 05:02:48;;;;;;;59.03;33.47;;;;;;;;;;5074872;28;20037;-61
2022/03/17 05:05:14;;;;;;;60.47;34.33;;;;;;;;;;5075477;28;20047;-61
2022/03/17 05:07:40;;;;;;;66.22;35.72;;;;;;;;;;5070155;28;20164;-61
2022/03/17 05:10:06;;;;;;;65.15;35.67;;;;;;;;;;5071837;28;20044;-60
2022/03/17 05:12:32;;;;;;;61.78;35.35;;;;;;;;;;5071723;28;20040;-60
2022/03/17 05:14:58;;;;;;;65.47;35.35;;;;;;;;;;5071563;28;20113;-61
2022/03/17 05:17:24;;;;;;;66.22;35.35;;;;;;;;;;5071981;28;20086;-61
2022/03/17 05:19:50;;;;;;;66.90;35.13;;;;;;;;;;5071961;28;20037;-60
2022/03/17 05:22:16;;;;;;;63.75;35.08;;;;;;;;;;5067263;28;20539;-60
2022/03/17 05:24:42;;;;;;;66.60;34.95;;;;;;;;;;5060443;28;20068;-61
2022/03/17 05:27:08;;;;;;;70.68;36.00;;;;;;;;;;5066489;28;20048;-61
2022/03/17 05:29:34;;;;;;;52.15;27.88;;;;;;;;;;5059772;28;20048;-61
2022/03/17 05:32:00;;;;;;;31.75;17.77;;;;;;;;;;5071028;28;20040;-61
2022/03/17 05:34:26;;;;;;;26.02;13.77;;;;;;;;;;5067744;28;20037;-60
2022/03/17 05:36:52;;;;;;;16.25;9.52;;;;;;;;;;5082571;22;20096;-63
2022/03/17 05:39:18;;;;;;;9.43;6.65;;;;;;;;;;5111114;28;20040;-64
2022/03/17 05:41:44;;;;;;;11.10;7.28;;;;;;;;;;5110382;28;20044;-63
2022/03/17 05:44:10;;;;;;;10.63;6.97;;;;;;;;;;5110150;28;20045;-63
2022/03/17 05:46:36;;;;;;;9.95;7.40;;;;;;;;;;5099387;28;20104;-65
2022/03/17 05:49:02;;;;;;;11.38;7.60;;;;;;;;;;5110972;28;20536;-65
2022/03/17 05:51:28;;;;;;;10.50;7.38;;;;;;;;;;5103976;28;20067;-65
2022/03/17 05:53:54;;;;;;;12.90;7.10;;;;;;;;;;5109262;28;20063;-65
2022/03/17 05:56:20;;;;;;;10.93;7.80;;;;;;;;;;5096407;28;20039;-65
2022/03/17 05:58:46;;;;;;;11.43;8.70;;;;;;;;;;5111158;28;20031;-64
2022/03/17 06:01:12;;;;;;;12.27;8.70;;;;;;;;;;5110026;28;20469;-64
2022/03/17 06:03:38;;;;;;;11.43;8.38;;;;;;;;;;5097411;28;20492;-64
2022/03/17 06:06:04;;;;;;;13.90;8.57;;;;;;;;;;5107777;28;20036;-63
2022/03/17 06:08:30;;;;;;;12.20;8.88;;;;;;;;;;5103619;28;20031;-63
2022/03/17 06:10:56;;;;;;;12.40;8.98;;;;;;;;;;5111114;28;20036;-63
2022/03/17 06:13:22;;;;;;;12.65;8.75;;;;;;;;;;5111865;28;20039;-63
2022/03/17 06:15:48;;;;;;;15.60;9.68;;;;;;;;;;5103497;28;20404;-63
2022/03/17 06:18:14;;;;;;;15.20;9.48;;;;;;;;;;5101926;28;20046;-63
2022/03/17 06:20:40;;;;;;;17.70;10.18;;;;;;;;;;5104715;28;20044;-63
2022/03/17 06:23:07;;;;;;;15.50;10.30;;;;;;;;;;5101319;28;20039;-62
2022/03/17 06:25:34;;;;;;;14.93;9.45;;;;;;;;;;5106090;28;20039;-62
2022/03/17 06:28:00;;;;;;;16.25;9.15;;;;;;;;;;5102488;28;20040;-63
2022/03/17 06:30:28;;;;;;;15.80;9.68;;;;;;;;;;5103642;28;20453;-63
2022/03/17 06:32:54;;;;;;;16.88;9.68;;;;;;;;;;5100728;28;20043;-62
2022/03/17 06:35:24;;;;;;;15.52;9.55;;;;;;;;;;5105635;28;20035;-63
2022/03/17 06:37:53;;;;;;;18.52;9.02;;;;;;;;;;5100378;28;20039;-63
2022/03/17 06:40:19;;;;;;;14.75;8.93;;;;;;;;;;5104392;28;20040;-62
2022/03/17 06:42:45;;;;;;;16.25;9.13;;;;;;;;;;5092830;28;20040;-62
2022/03/17 06:45:11;;;;;;;17.85;9.77;;;;;;;;;;5110378;28;20118;-62
2022/03/17 06:47:38;;;;;;;15.88;8.40;;;;;;;;;;5111606;28;20465;-62
2022/03/17 06:50:05;;;;;;;15.75;8.13;;;;;;;;;;5111310;28;20046;-62
2022/03/17 06:52:31;;;;;;;16.92;8.75;;;;;;;;;;5103132;28;20032;-62
2022/03/17 06:54:57;;;;;;;17.08;8.25;;;;;;;;;;5111263;28;20040;-62
2022/03/17 06:57:23;;;;;;;15.98;8.13;;;;;;;;;;5111252;28;20078;-62
2022/03/17 06:59:49;;;;;;;12.52;7.97;;;;;;;;;;5110668;28;20039;-62
2022/03/17 07:02:16;;;;;;;18.25;7.82;;;;;;;;;;5111917;28;20031;-63
2022/03/17 07:04:42;;;;;;;14.35;7.50;;;;;;;;;;5110978;28;20062;-62
2022/03/17 07:07:09;;;;;;;18.13;7.60;;;;;;;;;;5099439;28;20044;-62
2022/03/17 07:09:35;;;;;;;18.10;6.88;;;;;;;;;;5102775;28;20051;-62
2022/03/17 07:12:01;;;;;;;10.38;5.95;;;;;;;;;;5109779;28;20515;-62
2022/03/17 07:14:28;;;;;;;15.75;6.75;;;;;;;;;;5102875;28;20040;-62
2022/03/17 07:16:54;;;;;;;13.95;5.05;;;;;;;;;;5101742;28;20028;-62
2022/03/17 07:19:20;;;;;;;11.18;5.15;;;;;;;;;;5105488;28;20027;-62
2022/03/17 07:21:45;;;;;;;11.05;4.90;;;;;;;;;;5107979;28;20036;-62
2022/03/17 07:24:11;;;;;;;9.10;3.65;;;;;;;;;;5098928;28;20041;-62
2022/03/17 07:26:39;;;;;;;10.68;3.80;;;;;;;;;;5114580;28;20489;-62
2022/03/17 07:29:05;;;;;;;5.47;3.22;;;;;;;;;;5114163;28;20051;-63
2022/03/17 07:31:33;;;;;;;14.05;3.70;;;;;;;;;;5117421;27;20046;-62
2022/03/17 07:34:02;;;;;;;14.85;4.22;;;;;;;;;;5114800;28;20096;-62
2022/03/17 07:36:29;;;;;;;12.90;3.03;;;;;;;;;;5106610;28;20047;-63
2022/03/17 07:38:55;;;;;;;11.15;3.08;;;;;;;;;;5098786;28;20046;-62
2022/03/17 07:41:22;;;;;;;12.00;3.25;;;;;;;;;;5105762;28;20084;-62
2022/03/17 07:43:48;;;;;;;10.23;3.20;;;;;;;;;;5111136;28;20386;-62
2022/03/17 07:46:14;;;;;;;11.50;3.08;;;;;;;;;;5108573;28;20042;-62
2022/03/17 07:48:41;;;;;;;11.90;3.00;;;;;;;;;;5107839;28;20042;-62
2022/03/17 07:51:08;;;;;;;9.65;2.25;;;;;;;;;;5102846;28;20400;-62
2022/03/17 07:53:34;;;;;;;11.20;2.45;;;;;;;;;;5107804;28;20156;-62
2022/03/17 07:56:01;;;;;;;13.93;3.05;;;;;;;;;;5109823;28;20103;-62
2022/03/17 07:58:27;;;;;;;10.75;2.33;;;;;;;;;;5098549;28;20039;-62
2022/03/17 08:00:54;;;;;;;10.93;2.53;;;;;;;;;;5100608;28;20251;-61
2022/03/17 08:03:20;;;;;;;12.55;2.60;;;;;;;;;;5102710;28;20531;-62
2022/03/17 08:05:46;;;;;;;10.70;2.05;;;;;;;;;;5108900;28;20035;-62
2022/03/17 08:08:13;;;;;;;15.20;2.65;;;;;;;;;;5102975;28;20036;-62
2022/03/17 08:10:39;;;;;;;6.03;1.60;;;;;;;;;;5103005;28;20044;-62
2022/03/17 08:13:06;;;;;;;9.25;1.60;;;;;;;;;;5108763;27;20405;-62
2022/03/17 08:15:32;;;;;;;8.60;1.73;;;;;;;;;;5102984;28;20047;-62
2022/03/17 08:17:58;;;;;;;8.80;1.50;;;;;;;;;;5108298;28;20028;-62
2022/03/17 08:20:25;;;;;;;7.97;1.75;;;;;;;;;;5106833;28;20127;-62
2022/03/17 08:22:51;;;;;;;12.35;1.80;;;;;;;;;;5112526;28;20078;-62
2022/03/17 08:25:17;;;;;;;10.52;1.92;;;;;;;;;;5107555;28;20040;-62
2022/03/17 08:27:43;;;;;;;13.50;1.92;;;;;;;;;;5107693;28;20122;-62
2022/03/17 08:30:10;;;;;;;10.35;2.00;;;;;;;;;;5105311;28;20135;-62
2022/03/17 08:32:36;;;;;;;5.40;1.33;;;;;;;;;;5105995;28;20493;-62
2022/03/17 08:35:02;;;;;;;10.77;1.88;;;;;;;;;;5103510;28;20088;-62
2022/03/17 08:37:30;;;;;;;7.80;1.60;;;;;;;;;;5099558;28;20131;-62
2022/03/17 08:39:56;;;;;;;11.90;1.80;;;;;;;;;;5104604;28;20088;-62
2022/03/17 08:42:22;;;;;;;15.52;1.90;;;;;;;;;;5102830;28;20035;-62
2022/03/17 08:44:48;;;;;;;11.40;1.95;;;;;;;;;;5110844;28;20043;-62
2022/03/17 08:49:59;;;;;;;13.48;2.10;;;;;;;;;;5107227;28;20048;-62
2022/03/17 08:52:25;;;;;;;13.07;2.33;;;;;;;;;;5105810;28;20492;-62
2022/03/17 08:54:51;;;;;;;11.52;2.85;;;;;;;;;;5111210;28;20447;-62
2022/03/17 08:57:17;;;;;;;10.73;2.30;;;;;;;;;;5096004;28;20076;-62
2022/03/17 08:59:43;;;;;;;10.65;2.25;;;;;;;;;;5102631;28;20040;-62
2022/03/17 09:02:12;;;;;;;12.82;2.35;;;;;;;;;;5104175;28;20040;-62
2022/03/17 09:04:39;;;;;;;13.73;2.40;;;;;;;;;;5103136;28;20099;-62
2022/03/17 09:07:05;;;;;;;7.82;1.70;;;;;;;;;;5103667;28;20601;-62
2022/03/17 09:09:32;;;;;;;11.27;1.92;;;;;;;;;;5109177;28;20043;-62
2022/03/17 09:11:58;;;;;;;8.18;1.77;;;;;;;;;;5104823;28;20044;-62
2022/03/17 09:14:25;;;;;;;11.02;1.60;;;;;;;;;;5107247;28;20569;-62
2022/03/17 09:16:51;;;;;;;12.98;2.20;;;;;;;;;;5106639;28;20036;-62
2022/03/17 09:19:20;;;;;;;10.15;2.22;;;;;;;;;;5101488;28;20172;-62
2022/03/17 09:21:47;;;;;;;15.32;2.15;;;;;;;;;;5103478;28;20077;-62
2022/03/17 09:24:13;;;;;;;14.75;1.95;;;;;;;;;;5102221;28;20092;-62
2022/03/17 09:26:39;;;;;;;11.98;2.28;;;;;;;;;;5107336;28;20489;-62
2022/03/17 09:29:05;;;;;;;13.18;2.00;;;;;;;;;;5102772;28;20082;-62
2022/03/17 09:31:31;;;;;;;14.52;2.80;;;;;;;;;;5101188;28;20417;-62
2022/03/17 09:33:57;;;;;;;10.60;2.03;;;;;;;;;;5111629;28;20468;-62
2022/03/17 09:36:24;;;;;;;16.52;2.72;;;;;;;;;;5102759;28;20085;-62
2022/03/17 09:39:45;;;;;;;13.10;2.10;;;;;;;;;;5101561;27;20038;-62
2022/03/17 09:41:36;;;;;;;14.23;2.30;;;;;;;;;;5108413;28;20054;-61
2022/03/17 09:44:02;;;;;;;16.35;2.42;;;;;;;;;;5110429;28;20039;-61
2022/03/17 09:46:29;;;;;;;14.65;2.20;;;;;;;;;;5110498;28;20043;-61
2022/03/17 09:48:56;;;;;;;16.73;2.05;;;;;;;;;;5111553;28;20032;-62
2022/03/17 09:51:26;;;;;;;18.08;2.10;;;;;;;;;;5112109;27;20043;-60
2022/03/17 09:53:53;;;;;;;11.20;2.20;;;;;;;;;;5112024;28;20036;-61
2022/03/17 09:56:23;;;;;;;12.38;2.22;;;;;;;;;;5110849;28;20293;-61
2022/03/17 09:58:50;;;;;;;14.07;2.25;;;;;;;;;;5109538;28;20481;-61
2022/03/17 10:01:17;;;;;;;12.32;2.55;;;;;;;;;;5111165;28;20039;-62
2022/03/17 10:03:44;;;;;;;9.52;2.20;;;;;;;;;;5110610;28;20084;-61
2022/03/17 10:06:10;;;;;;;9.80;2.70;;;;;;;;;;5109251;28;20044;-61
2022/03/17 10:08:40;;;;;;;8.15;2.10;;;;;;;;;;5110522;28;20059;-62
2022/03/17 10:11:07;;;;;;;11.30;1.75;;;;;;;;;;5110749;28;20075;-61
2022/03/17 10:13:39;;;;;;;10.77;2.25;;;;;;;;;;5111476;28;20074;-61
2022/03/17 10:16:05;;;;;;;8.77;1.70;;;;;;;;;;5111347;28;20066;-61
2022/03/17 10:18:36;;;;;;;9.90;2.00;;;;;;;;;;5110923;28;20251;-61
2022/03/17 10:21:08;;;;;;;12.60;1.95;;;;;;;;;;5111679;28;20039;-61
2022/03/17 10:23:35;;;;;;;13.40;2.05;;;;;;;;;;5106841;28;20036;-61
2022/03/17 10:26:01;;;;;;;16.10;2.15;;;;;;;;;;5097808;28;20140;-61
2022/03/17 10:28:27;;;;;;;7.65;1.60;;;;;;;;;;5104064;28;20120;-61
2022/03/17 10:31:07;;;;;;;12.43;2.28;;;;;;;;;;5095055;28;20176;-61
2022/03/17 10:33:33;;;;;;;9.65;2.25;;;;;;;;;;5102198;28;20059;-61
2022/03/17 10:36:15;;;;;;;13.32;1.95;;;;;;;;;;5107547;28;20040;-62
2022/03/17 10:38:46;;;;;;;13.90;2.08;;;;;;;;;;5108753;28;20043;-62
2022/03/17 10:41:12;;;;;;;11.15;2.13;;;;;;;;;;5107842;28;20036;-62
2022/03/17 10:43:45;;;;;;;10.90;2.10;;;;;;;;;;5101712;28;20197;-62
2022/03/17 10:46:12;;;;;;;11.60;2.05;;;;;;;;;;5104934;28;20042;-62
2022/03/17 10:48:58;;;;;;;12.05;1.95;;;;;;;;;;5109291;28;20058;-61
2022/03/17 10:51:30;;;;;;;9.82;1.65;;;;;;;;;;5108532;28;20040;-62
2022/03/17 10:54:03;;;;;;;7.70;1.98;;;;;;;;;;5104605;28;20043;-62
2022/03/17 10:56:29;;;;;;;8.45;1.77;;;;;;;;;;5115101;28;20051;-62
2022/03/17 10:58:55;;;;;;;7.57;1.58;;;;;;;;;;5114600;28;20080;-62
2022/03/17 11:01:35;;;;;;;9.68;1.63;;;;;;;;;;5114996;28;20092;-62
2022/03/17 11:04:01;;;;;;;6.88;1.63;;;;;;;;;;5111967;28;20036;-62
2022/03/17 11:06:28;;;;;;;9.77;2.03;;;;;;;;;;5118314;27;20032;-62
2022/03/17 11:08:54;;;;;;;8.70;1.70;;;;;;;;;;5114460;28;20389;-61
2022/03/17 11:11:21;;;;;;;7.05;1.73;;;;;;;;;;5115332;28;20047;-62
2022/03/17 11:13:47;;;;;;;9.35;1.40;;;;;;;;;;5114592;28;20051;-62
2022/03/17 11:16:14;;;;;;;8.25;1.70;;;;;;;;;;5113684;28;20489;-61
2022/03/17 11:18:41;;;;;;;7.35;1.40;;;;;;;;;;5106009;28;20035;-62
2022/03/17 11:21:14;;;;;;;8.43;1.90;;;;;;;;;;5102756;28;20424;-62
2022/03/17 11:24:01;;;;;;;12.32;1.98;;;;;;;;;;5110874;28;20048;-61
2022/03/17 11:26:33;;;;;;;9.38;1.73;;;;;;;;;;5112450;28;20085;-62
2022/03/17 11:29:07;;;;;;;4.85;1.63;;;;;;;;;;5114085;28;20071;-62
2022/03/17 11:31:52;;;;;;;14.13;1.95;;;;;;;;;;5108447;28;20074;-62
2022/03/17 11:34:42;;;;;;;7.43;1.40;;;;;;;;;;5113717;28;20043;-62
2022/03/17 11:37:15;;;;;;;6.03;1.30;;;;;;;;;;5120166;22;20747;-61
2022/03/17 11:39:55;;;;;;;8.05;1.67;;;;;;;;;;5093677;28;20036;-60
2022/03/17 11:42:31;;;;;;;7.25;1.42;;;;;;;;;;5094337;28;20610;-60
2022/03/17 11:45:01;;;;;;;7.07;1.42;;;;;;;;;;5077674;28;20037;-60
2022/03/17 11:47:27;;;;;;;7.93;1.67;;;;;;;;;;5073395;28;20523;-60
2022/03/17 11:49:53;;;;;;;10.65;1.98;;;;;;;;;;5085712;28;20036;-60
2022/03/17 11:52:20;;;;;;;9.43;1.40;;;;;;;;;;5089479;28;20081;-60
2022/03/17 11:54:46;;;;;;;8.85;1.95;;;;;;;;;;5093848;28;20044;-60
2022/03/17 11:57:14;;;;;;;8.20;1.80;;;;;;;;;;5094152;28;20039;-60
2022/03/17 11:59:55;;;;;;;9.38;1.70;;;;;;;;;;5093147;28;20497;-60
2022/03/17 12:02:28;;;;;;;10.02;1.52;;;;;;;;;;5075347;28;20489;-60
2022/03/17 12:04:54;;;;;;;10.43;1.95;;;;;;;;;;5093704;28;20047;-60
2022/03/17 12:07:20;;;;;;;8.27;2.08;;;;;;;;;;5093300;28;20032;-60
2022/03/17 12:09:47;;;;;;;10.82;1.70;;;;;;;;;;5075405;28;20051;-60
2022/03/17 12:12:17;;;;;;;10.30;2.13;;;;;;;;;;5082442;28;20049;-60
2022/03/17 12:14:50;;;;;;;9.98;2.03;;;;;;;;;;5073258;28;20045;-61
2022/03/17 12:17:17;;;;;;;9.40;2.00;;;;;;;;;;5073199;28;20052;-60
2022/03/17 12:19:51;;;;;;;6.60;1.60;;;;;;;;;;5055359;28;20098;-61
2022/03/17 12:22:21;;;;;;;14.07;2.20;;;;;;;;;;5092779;28;20040;-60
2022/03/17 12:25:13;;;;;;;8.70;1.77;;;;;;;;;;5089346;28;20047;-60
2022/03/17 12:27:40;;;;;;;8.82;1.83;;;;;;;;;;5070425;28;20482;-60
2022/03/17 12:30:08;;;;;;;11.73;2.17;;;;;;;;;;5073148;28;20047;-60
2022/03/17 12:32:35;;;;;;;9.15;2.05;;;;;;;;;;5073220;28;20474;-60
2022/03/17 12:35:01;;;;;;;3.88;1.45;;;;;;;;;;5075005;28;20086;-60
2022/03/17 12:37:28;;;;;;;9.40;2.10;;;;;;;;;;5091272;28;20043;-60
2022/03/17 12:39:56;;;;;;;7.10;1.65;;;;;;;;;;5093335;28;20505;-60
2022/03/17 12:42:23;;;;;;;9.15;1.85;;;;;;;;;;5091183;28;20040;-60
2022/03/17 12:44:54;;;;;;;7.70;1.85;;;;;;;;;;5072628;28;20083;-60
2022/03/17 12:47:21;;;;;;;5.85;1.45;;;;;;;;;;5088049;28;20036;-60
2022/03/17 12:49:50;;;;;;;11.57;1.63;;;;;;;;;;5088736;28;20035;-60
2022/03/17 12:52:17;;;;;;;12.25;1.80;;;;;;;;;;5072551;28;20048;-60
2022/03/17 12:54:44;;;;;;;8.52;1.90;;;;;;;;;;5090288;28;20498;-60
2022/03/17 12:57:10;;;;;;;6.82;1.50;;;;;;;;;;5092551;28;20490;-60
2022/03/17 12:59:36;;;;;;;10.65;2.25;;;;;;;;;;5091819;28;20431;-60
2022/03/17 13:02:03;;;;;;;10.70;1.85;;;;;;;;;;5092822;28;20036;-60
2022/03/17 13:04:29;;;;;;;6.38;1.52;;;;;;;;;;5092072;28;20129;-60
2022/03/17 13:06:57;;;;;;;9.40;2.10;;;;;;;;;;5079508;28;20044;-60
2022/03/17 13:09:30;;;;;;;9.23;1.88;;;;;;;;;;5071589;28;20678;-60
2022/03/17 13:14:49;;;;;;;7.97;1.58;;;;;;;;;;5070914;28;20053;-60
2022/03/17 13:17:28;;;;;;;13.05;2.33;;;;;;;;;;5058292;28;20385;-60
2022/03/17 13:19:55;;;;;;;7.15;1.48;;;;;;;;;;5089269;28;20510;-60
2022/03/17 13:22:22;;;;;;;8.52;2.15;;;;;;;;;;5092776;28;20168;-60
2022/03/17 13:25:01;;;;;;;6.57;1.85;;;;;;;;;;5073680;28;20044;-60
2022/03/17 13:27:28;;;;;;;6.07;1.35;;;;;;;;;;5091960;28;20101;-60
2022/03/17 13:29:54;;;;;;;8.15;1.58;;;;;;;;;;5092664;28;20040;-60
2022/03/17 13:32:21;;;;;;;5.38;1.75;;;;;;;;;;5091299;28;20063;-60
2022/03/17 13:34:57;;;;;;;13.48;1.95;;;;;;;;;;5073451;28;20090;-60
2022/03/17 13:37:32;;;;;;;8.82;1.65;;;;;;;;;;5073729;28;20463;-60
2022/03/17 13:40:02;;;;;;;8.57;2.33;;;;;;;;;;5092147;28;20082;-60
2022/03/17 13:42:28;;;;;;;8.77;1.88;;;;;;;;;;5092514;28;20043;-61
2022/03/17 13:44:55;;;;;;;8.10;1.70;;;;;;;;;;5074107;28;20040;-60
2022/03/17 13:47:26;;;;;;;10.57;2.83;;;;;;;;;;5070677;28;20044;-60
2022/03/17 13:50:12;;;;;;;6.07;1.60;;;;;;;;;;5090903;28;20047;-60
2022/03/17 13:52:39;;;;;;;5.47;1.75;;;;;;;;;;5091728;28;20054;-60
2022/03/17 13:55:13;;;;;;;9.75;2.28;;;;;;;;;;5092222;28;20097;-60
2022/03/17 13:57:39;;;;;;;9.38;1.67;;;;;;;;;;5077679;28;20083;-61
2022/03/17 14:00:14;;;;;;;6.50;1.60;;;;;;;;;;5062798;28;20090;-60
2022/03/17 14:02:40;;;;;;;9.02;1.85;;;;;;;;;;5073211;28;20039;-61
2022/03/17 14:05:13;;;;;;;9.00;1.58;;;;;;;;;;5091720;28;20127;-60
2022/03/17 14:07:39;;;;;;;7.68;1.60;;;;;;;;;;5091842;28;20526;-60
2022/03/17 14:10:05;;;;;;;14.27;1.92;;;;;;;;;;5076338;28;20053;-61
2022/03/17 14:12:31;;;;;;;7.32;1.67;;;;;;;;;;5071373;28;20094;-60
2022/03/17 14:14:57;;;;;;;6.47;1.55;;;;;;;;;;5071262;28;20044;-61
2022/03/17 14:17:24;;;;;;;8.10;1.70;;;;;;;;;;5071094;28;20127;-60
2022/03/17 14:19:50;;;;;;;9.25;1.70;;;;;;;;;;5092053;28;20028;-60
2022/03/17 14:25:00;;;;;;;9.60;2.00;;;;;;;;;;5078697;28;20044;-60
2022/03/17 14:27:26;;;;;;;9.38;1.73;;;;;;;;;;5093506;28;20036;-60
2022/03/17 14:29:52;;;;;;;8.40;1.20;;;;;;;;;;5060646;28;20044;-60
2022/03/17 14:32:18;;;;;;;6.22;1.40;;;;;;;;;;5067999;28;20050;-60
2022/03/17 14:34:45;;;;;;;15.60;2.40;;;;;;;;;;5095328;28;20036;-60
2022/03/17 14:37:11;;;;;;;8.30;1.75;;;;;;;;;;5094924;28;20386;-60
2022/03/17 14:39:43;;;;;;;12.38;1.98;;;;;;;;;;5094725;28;20408;-60
2022/03/17 14:42:12;;;;;;;8.73;1.50;;;;;;;;;;5094072;28;20047;-60
2022/03/17 14:44:38;;;;;;;6.60;1.50;;;;;;;;;;5089465;28;20040;-61
2022/03/17 14:47:04;;;;;;;5.65;1.60;;;;;;;;;;5087793;28;20139;-61
2022/03/17 14:49:30;;;;;;;7.90;1.80;;;;;;;;;;5074995;28;20044;-61
2022/03/17 14:51:56;;;;;;;8.43;1.58;;;;;;;;;;5075231;28;20047;-61